Time;durP1;ratioP1;P1;durP2;ratioP2;P2;SDS_P1;SDS_P2;PMS_P1;PMS_P2;Temp;Humidity;BMP_temperature;BMP_pressure;BME280_temperature;BME280_humidity;BME280_pressure;Samples;Min_cycle;Max_cycle;Signal;HPM_P1;HPM_P2
2023/01/07 00:02:16;;;;;;;6.70;6.20;;;10.70;99.90;;;;;;5108808;28;20302;-78
2023/01/07 00:04:45;;;;;;;7.78;7.00;;;10.70;99.90;;;;;;5099846;28;20225;-77
2023/01/07 00:07:12;;;;;;;8.00;7.30;;;10.70;99.90;;;;;;5091570;28;20216;-76
2023/01/07 00:09:39;;;;;;;7.80;7.00;;;10.70;99.90;;;;;;5095846;28;20345;-76
2023/01/07 00:12:06;;;;;;;6.93;6.32;;;10.60;99.90;;;;;;5107832;28;20291;-76
2023/01/07 00:14:37;;;;;;;7.80;7.00;;;10.60;99.90;;;;;;5103031;28;20215;-77
2023/01/07 00:17:08;;;;;;;8.02;7.38;;;10.60;99.90;;;;;;5111448;28;20223;-78
2023/01/07 00:19:35;;;;;;;7.05;6.43;;;10.60;99.90;;;;;;5103922;28;20644;-76
2023/01/07 00:22:02;;;;;;;7.05;6.45;;;10.60;99.90;;;;;;5114423;28;20261;-76
2023/01/07 00:24:30;;;;;;;7.07;6.47;;;10.60;99.90;;;;;;5103129;28;20284;-78
2023/01/07 00:26:59;;;;;;;8.10;6.80;;;10.60;99.90;;;;;;5112081;28;20227;-77
2023/01/07 00:29:25;;;;;;;7.65;6.95;;;10.60;99.90;;;;;;5102675;28;20227;-76
2023/01/07 00:31:54;;;;;;;6.90;6.20;;;10.60;99.90;;;;;;5112248;28;20294;-76
2023/01/07 00:34:22;;;;;;;7.30;6.60;;;10.50;99.90;;;;;;5114227;28;20267;-77
2023/01/07 00:36:49;;;;;;;8.48;7.40;;;10.60;99.90;;;;;;5097225;28;20563;-76
2023/01/07 00:39:21;;;;;;;6.57;5.97;;;10.50;99.90;;;;;;5103417;28;20278;-77
2023/01/07 00:44:30;;;;;;;7.85;6.97;;;10.50;99.90;;;;;;5100870;28;20240;-79
2023/01/07 00:47:00;;;;;;;7.68;6.97;;;10.50;99.90;;;;;;5104459;28;20657;-79
2023/01/07 00:49:27;;;;;;;7.43;6.72;;;10.50;99.90;;;;;;5109568;28;20253;-79
2023/01/07 00:51:55;;;;;;;6.47;5.88;;;10.40;99.90;;;;;;5094590;28;20220;-77
2023/01/07 00:54:22;;;;;;;5.68;5.20;;;10.50;99.90;;;;;;5094530;28;20718;-79
2023/01/07 00:56:49;;;;;;;8.00;7.22;;;10.40;99.90;;;;;;5106405;28;20287;-77
2023/01/07 00:59:16;;;;;;;6.28;5.78;;;10.40;99.90;;;;;;5093066;28;20293;-78
2023/01/07 01:01:46;;;;;;;6.57;5.97;;;10.40;99.90;;;;;;5101013;28;20249;-78
2023/01/07 01:04:17;;;;;;;5.85;5.35;;;10.40;99.90;;;;;;5110092;28;20210;-77
2023/01/07 01:06:44;;;;;;;11.50;6.25;;;10.30;99.90;;;;;;5103452;28;20230;-78
2023/01/07 01:09:11;;;;;;;6.40;5.75;;;10.40;99.90;;;;;;5113073;28;20300;-78
2023/01/07 01:11:38;;;;;;;5.55;5.05;;;10.30;99.90;;;;;;5099225;28;20235;-76
2023/01/07 01:14:05;;;;;;;6.82;6.22;;;10.30;99.90;;;;;;5098477;28;20288;-81
2023/01/07 01:16:32;;;;;;;6.50;5.85;;;10.30;99.90;;;;;;5112783;28;20226;-77
2023/01/07 01:18:59;;;;;;;5.90;5.40;;;10.30;99.90;;;;;;5100268;28;20234;-77
2023/01/07 01:21:28;;;;;;;6.07;5.53;;;10.30;99.90;;;;;;5103221;28;20222;-79
2023/01/07 01:23:55;;;;;;;4.95;4.57;;;10.20;99.90;;;;;;5105986;28;20612;-79
2023/01/07 01:26:22;;;;;;;7.68;5.00;;;10.30;99.90;;;;;;5106211;28;20223;-77
2023/01/07 01:28:52;;;;;;;4.75;4.35;;;10.30;99.90;;;;;;5088598;28;20230;-78
2023/01/07 01:31:22;;;;;;;5.53;5.03;;;10.20;99.90;;;;;;5098660;28;20233;-77
2023/01/07 01:33:49;;;;;;;5.32;4.90;;;10.20;99.90;;;;;;5112396;28;20310;-78
2023/01/07 01:36:16;;;;;;;6.25;4.78;;;10.20;99.90;;;;;;5105411;28;20214;-78
2023/01/07 01:38:45;;;;;;;4.82;4.43;;;10.20;99.90;;;;;;5097692;28;20215;-79
2023/01/07 01:41:16;;;;;;;5.22;4.72;;;10.20;99.90;;;;;;5111920;28;20298;-79
2023/01/07 01:43:44;;;;;;;4.88;4.47;;;10.20;99.90;;;;;;5098232;28;20253;-78
2023/01/07 01:46:20;;;;;;;6.32;5.82;;;10.20;99.90;;;;;;5107823;28;20218;-79
2023/01/07 01:48:58;;;;;;;4.97;4.55;;;10.20;99.90;;;;;;5097252;28;20214;-77
2023/01/07 01:51:33;;;;;;;6.40;5.35;;;10.20;99.90;;;;;;5106399;28;20283;-77
2023/01/07 01:54:03;;;;;;;6.10;4.70;;;10.20;99.90;;;;;;5085320;28;20226;-78
2023/01/07 01:56:34;;;;;;;4.57;4.18;;;10.20;99.90;;;;;;5096797;28;20245;-77
2023/01/07 01:59:05;;;;;;;4.95;4.53;;;10.10;99.90;;;;;;5096306;28;20710;-79
2023/01/07 02:01:35;;;;;;;4.28;3.97;;;10.10;99.90;;;;;;5101576;28;20215;-78
2023/01/07 02:04:08;;;;;;;4.95;4.43;;;10.20;99.90;;;;;;5102625;28;20310;-79
2023/01/07 02:06:41;;;;;;;4.03;3.72;;;10.20;99.90;;;;;;5103603;28;20234;-78
2023/01/07 02:09:12;;;;;;;4.53;4.13;;;10.20;99.90;;;;;;5095789;28;20233;-78
2023/01/07 02:11:49;;;;;;;8.60;4.15;;;10.10;99.90;;;;;;5110099;28;20223;-78
2023/01/07 02:14:32;;;;;;;5.13;4.63;;;10.10;99.90;;;;;;5106188;28;20250;-79
2023/01/07 02:17:04;;;;;;;5.60;4.70;;;10.20;99.90;;;;;;5104806;28;20223;-79
2023/01/07 02:20:05;;;;;;;4.57;4.22;;;10.20;99.90;;;;;;5100179;28;20234;-77
2023/01/07 02:23:16;;;;;;;4.50;4.15;;;10.10;99.90;;;;;;5110654;28;20608;-78
2023/01/07 02:26:12;;;;;;;4.95;4.32;;;10.20;99.90;;;;;;5098083;28;20222;-77
2023/01/07 02:29:11;;;;;;;5.55;5.05;;;10.10;99.90;;;;;;5110604;28;20229;-77
2023/01/07 02:32:15;;;;;;;4.25;3.85;;;10.10;99.90;;;;;;5108113;28;20219;-77
2023/01/07 02:34:57;;;;;;;5.07;4.55;;;10.10;99.90;;;;;;5118792;28;20679;-77
2023/01/07 02:37:31;;;;;;;5.20;4.70;;;10.10;99.90;;;;;;5101732;28;20223;-77
2023/01/07 02:40:03;;;;;;;5.22;4.72;;;10.10;99.90;;;;;;5115114;28;20716;-77
2023/01/07 02:42:38;;;;;;;4.82;4.43;;;10.10;99.90;;;;;;5114090;28;20539;-77
2023/01/07 02:45:11;;;;;;;5.70;5.20;;;10.10;99.90;;;;;;5105103;28;20286;-78
2023/01/07 02:47:44;;;;;;;4.50;4.10;;;10.10;99.90;;;;;;5096910;28;20707;-77
2023/01/07 02:50:12;;;;;;;5.03;4.25;;;10.10;99.90;;;;;;5105105;28;20229;-77
2023/01/07 02:52:48;;;;;;;4.25;3.85;;;10.20;99.90;;;;;;5105065;28;20227;-78
2023/01/07 02:55:17;;;;;;;5.40;4.50;;;10.20;99.90;;;;;;5108607;28;20722;-77
2023/01/07 02:58:30;;;;;;;3.83;3.53;;;10.20;99.90;;;;;;5111889;28;20605;-77
2023/01/07 03:01:13;;;;;;;4.30;3.85;;;10.20;99.90;;;;;;5111348;28;20287;-77
2023/01/07 03:03:55;;;;;;;5.03;4.63;;;10.20;99.90;;;;;;5097560;28;20238;-77
2023/01/07 03:06:37;;;;;;;5.03;4.53;;;10.10;99.90;;;;;;5104479;28;20722;-78
2023/01/07 03:09:10;;;;;;;4.53;4.13;;;10.10;99.90;;;;;;5108935;28;20540;-77
2023/01/07 03:11:46;;;;;;;4.40;4.10;;;10.10;99.90;;;;;;5109075;28;20227;-78
2023/01/07 03:14:19;;;;;;;5.03;4.53;;;10.10;99.90;;;;;;5113610;28;20229;-78
2023/01/07 03:16:54;;;;;;;5.28;4.78;;;10.10;99.90;;;;;;5108759;28;20226;-77
2023/01/07 03:22:26;;;;;;;6.22;5.63;;;10.10;99.90;;;;;;5115705;28;20218;-76
2023/01/07 03:24:57;;;;;;;6.93;6.10;;;10.10;99.90;;;;;;5108684;28;20223;-77
2023/01/07 03:27:26;;;;;;;6.47;5.80;;;10.00;99.90;;;;;;5132529;28;20214;-78
2023/01/07 03:29:54;;;;;;;8.38;7.60;;;10.00;99.90;;;;;;5137527;28;20214;-77
2023/01/07 03:32:25;;;;;;;7.15;6.55;;;10.00;99.90;;;;;;5120288;28;20275;-78
2023/01/07 03:34:54;;;;;;;7.32;6.05;;;10.10;99.90;;;;;;5119290;28;20283;-78
2023/01/07 03:37:28;;;;;;;8.10;7.30;;;10.10;99.90;;;;;;5124312;28;20269;-78
2023/01/07 03:39:56;;;;;;;10.82;8.90;;;10.00;99.90;;;;;;5108190;28;20295;-76
2023/01/07 03:42:38;;;;;;;8.93;7.40;;;10.00;99.90;;;;;;5100862;28;20233;-76
2023/01/07 03:45:08;;;;;;;7.78;6.97;;;10.10;99.90;;;;;;5087191;28;20222;-77
2023/01/07 03:47:37;;;;;;;9.27;8.13;;;10.00;99.90;;;;;;5092517;28;20219;-77
2023/01/07 03:50:09;;;;;;;9.02;8.13;;;10.10;99.90;;;;;;5093420;28;20224;-78
2023/01/07 03:52:36;;;;;;;9.07;8.00;;;10.10;99.90;;;;;;5094109;28;20223;-77
2023/01/07 03:55:03;;;;;;;11.15;8.60;;;10.00;99.90;;;;;;5094385;28;20223;-77
2023/01/07 03:57:33;;;;;;;9.25;7.80;;;10.10;99.90;;;;;;5093586;28;20280;-77
2023/01/07 04:00:00;;;;;;;9.82;8.77;;;10.10;99.90;;;;;;5094245;28;20231;-77
2023/01/07 04:02:28;;;;;;;8.57;7.65;;;10.10;99.90;;;;;;5094098;28;20226;-77
2023/01/07 04:04:55;;;;;;;7.45;6.75;;;10.10;99.90;;;;;;5095181;28;20223;-78
2023/01/07 04:07:23;;;;;;;7.75;6.43;;;10.10;99.90;;;;;;5094180;28;20230;-77
2023/01/07 04:09:51;;;;;;;12.20;8.65;;;10.10;99.90;;;;;;5094565;28;20278;-77
2023/01/07 04:12:18;;;;;;;10.38;9.00;;;10.10;99.90;;;;;;5093386;28;20576;-76
2023/01/07 04:14:45;;;;;;;9.10;7.55;;;10.20;99.90;;;;;;5095115;28;20732;-76
2023/01/07 04:17:12;;;;;;;9.23;7.90;;;10.20;99.90;;;;;;5094897;28;20239;-78
2023/01/07 04:19:42;;;;;;;8.60;7.80;;;10.20;99.90;;;;;;5094819;28;20227;-77
2023/01/07 04:22:10;;;;;;;8.32;7.50;;;10.20;99.90;;;;;;5096053;28;20237;-77
2023/01/07 04:24:41;;;;;;;7.68;6.90;;;10.20;99.90;;;;;;5078104;28;20216;-77
2023/01/07 04:27:07;;;;;;;7.90;6.35;;;10.20;99.90;;;;;;5094913;28;20301;-78
2023/01/07 04:29:36;;;;;;;7.03;6.22;;;10.20;99.90;;;;;;5094300;28;20219;-78
2023/01/07 04:32:05;;;;;;;7.80;7.10;;;10.20;99.90;;;;;;5094592;28;20219;-77
2023/01/07 04:34:33;;;;;;;8.38;7.00;;;10.20;99.90;;;;;;5094199;28;20310;-77
2023/01/07 04:37:00;;;;;;;7.45;6.75;;;10.20;99.90;;;;;;5095142;28;20567;-76
2023/01/07 04:39:27;;;;;;;7.57;6.80;;;10.20;99.90;;;;;;5094169;28;20300;-78
2023/01/07 04:41:55;;;;;;;8.80;8.00;;;10.20;99.90;;;;;;5094709;28;20247;-78
2023/01/07 04:44:22;;;;;;;9.05;6.80;;;10.20;99.90;;;;;;5094088;28;20246;-79
2023/01/07 04:46:59;;;;;;;8.10;7.30;;;10.20;99.90;;;;;;5094769;28;20302;-77
2023/01/07 04:49:25;;;;;;;8.40;7.60;;;10.20;99.90;;;;;;5093558;28;20234;-77
2023/01/07 04:51:53;;;;;;;8.30;7.38;;;10.20;99.90;;;;;;5094329;28;20302;-77
2023/01/07 04:54:20;;;;;;;8.15;7.15;;;10.20;99.90;;;;;;5093576;28;20630;-78
2023/01/07 04:56:47;;;;;;;8.50;7.70;;;10.20;99.90;;;;;;5094349;28;20233;-77
2023/01/07 04:59:15;;;;;;;8.35;7.40;;;10.20;99.90;;;;;;5083420;28;20318;-78
2023/01/07 05:01:42;;;;;;;11.57;8.50;;;10.20;99.90;;;;;;5093578;28;20311;-79
2023/01/07 05:04:09;;;;;;;7.35;6.65;;;10.20;99.90;;;;;;5094910;28;20246;-77
2023/01/07 05:06:36;;;;;;;9.43;8.50;;;10.20;99.90;;;;;;5093960;28;20269;-79
2023/01/07 05:09:06;;;;;;;7.68;6.95;;;10.20;99.90;;;;;;5093824;28;20219;-79
2023/01/07 05:11:33;;;;;;;9.52;7.55;;;10.30;99.90;;;;;;5092987;28;20230;-79
2023/01/07 05:14:00;;;;;;;9.15;8.25;;;10.20;99.90;;;;;;5093920;28;20215;-79
2023/01/07 05:16:29;;;;;;;7.80;7.00;;;10.20;99.90;;;;;;5093222;28;20638;-77
2023/01/07 05:18:56;;;;;;;8.32;7.53;;;10.30;99.90;;;;;;5093745;28;20215;-77
2023/01/07 05:21:23;;;;;;;9.43;8.32;;;10.30;99.90;;;;;;5094223;28;20222;-79
2023/01/07 05:23:50;;;;;;;8.25;7.32;;;10.30;99.90;;;;;;5093505;28;20223;-79
2023/01/07 05:26:17;;;;;;;7.97;6.88;;;10.30;99.90;;;;;;5093868;28;20223;-77
2023/01/07 05:28:44;;;;;;;6.78;6.15;;;10.40;99.90;;;;;;5082688;28;20223;-78
2023/01/07 05:31:14;;;;;;;8.15;7.45;;;10.30;99.90;;;;;;5092766;28;20310;-78
2023/01/07 05:33:44;;;;;;;9.00;7.68;;;10.30;99.90;;;;;;5093343;28;20575;-77
2023/01/07 05:36:11;;;;;;;10.00;8.77;;;10.40;99.90;;;;;;5093922;28;20262;-77
2023/01/07 05:38:38;;;;;;;8.80;7.95;;;10.30;99.90;;;;;;5092109;28;20292;-78
2023/01/07 05:41:05;;;;;;;8.18;7.32;;;10.30;99.90;;;;;;5093701;28;20231;-79
2023/01/07 05:43:37;;;;;;;9.43;8.43;;;10.30;99.90;;;;;;5093989;28;20261;-78
2023/01/07 05:46:05;;;;;;;9.82;8.40;;;10.30;99.90;;;;;;5093858;28;20215;-79
2023/01/07 05:48:32;;;;;;;7.85;7.03;;;10.30;99.90;;;;;;5092493;28;20307;-79
2023/01/07 05:51:01;;;;;;;9.75;8.07;;;10.40;99.90;;;;;;5093535;28;20285;-79
2023/01/07 05:53:28;;;;;;;9.85;8.85;;;10.40;99.90;;;;;;5093846;28;20261;-77
2023/01/07 05:55:59;;;;;;;7.85;7.15;;;10.40;99.90;;;;;;5082286;28;20222;-78
2023/01/07 05:58:27;;;;;;;9.55;8.60;;;10.40;99.90;;;;;;5074928;28;20270;-78
2023/01/07 06:00:56;;;;;;;7.30;6.50;;;10.40;99.90;;;;;;5091018;28;20274;-77
2023/01/07 06:03:23;;;;;;;8.13;7.13;;;10.40;99.90;;;;;;5092023;28;20265;-77
2023/01/07 06:05:53;;;;;;;9.38;7.82;;;10.40;99.90;;;;;;5092115;28;20245;-77
2023/01/07 06:08:21;;;;;;;9.80;8.80;;;10.40;99.90;;;;;;5092373;28;20223;-77
2023/01/07 06:10:48;;;;;;;9.40;8.40;;;10.40;99.90;;;;;;5092681;28;20322;-77
2023/01/07 06:13:15;;;;;;;9.05;8.18;;;10.40;99.90;;;;;;5093222;28;20269;-77
2023/01/07 06:15:44;;;;;;;8.05;7.05;;;10.40;99.90;;;;;;5092105;28;20241;-77
2023/01/07 06:18:11;;;;;;;8.18;7.43;;;10.40;99.90;;;;;;5092846;28;20239;-78
2023/01/07 06:20:38;;;;;;;8.73;7.93;;;10.40;99.90;;;;;;5093059;28;20235;-77
2023/01/07 06:23:09;;;;;;;8.60;7.80;;;10.40;99.90;;;;;;5092398;28;20230;-77
2023/01/07 06:25:37;;;;;;;7.15;6.45;;;10.40;99.90;;;;;;5092956;28;20234;-78
2023/01/07 06:28:04;;;;;;;7.97;7.15;;;10.40;99.90;;;;;;5092638;28;20302;-78
2023/01/07 06:30:32;;;;;;;7.90;6.50;;;10.40;99.90;;;;;;5092721;28;20265;-78
2023/01/07 06:32:59;;;;;;;10.88;7.72;;;10.40;99.90;;;;;;5092558;28;20242;-78
2023/01/07 06:35:26;;;;;;;8.07;7.28;;;10.50;99.90;;;;;;5092603;28;20234;-78
2023/01/07 06:37:53;;;;;;;9.10;8.20;;;10.50;99.90;;;;;;5091806;28;20225;-78
2023/01/07 06:40:20;;;;;;;8.40;7.38;;;10.50;99.90;;;;;;5093158;28;20227;-77
2023/01/07 06:42:52;;;;;;;8.90;7.15;;;10.50;99.90;;;;;;5090596;28;20227;-77
2023/01/07 06:45:19;;;;;;;8.40;7.60;;;10.50;99.90;;;;;;5092040;28;20226;-77
2023/01/07 06:47:48;;;;;;;8.25;7.35;;;10.50;99.90;;;;;;5092194;28;20227;-77
2023/01/07 06:50:16;;;;;;;7.80;6.97;;;10.50;99.90;;;;;;5092461;28;20571;-78
2023/01/07 06:52:43;;;;;;;9.85;8.95;;;10.50;99.90;;;;;;5091954;28;20332;-78
2023/01/07 06:55:10;;;;;;;7.75;6.88;;;10.40;99.90;;;;;;5091502;28;20560;-78
2023/01/07 06:57:37;;;;;;;8.23;7.35;;;10.50;99.90;;;;;;5092460;28;20277;-77
2023/01/07 07:00:07;;;;;;;8.50;7.53;;;10.50;99.90;;;;;;5091479;28;20224;-77
2023/01/07 07:02:34;;;;;;;9.20;8.30;;;10.50;99.90;;;;;;5092652;28;20223;-77
2023/01/07 07:05:01;;;;;;;8.73;7.80;;;10.40;99.90;;;;;;5091835;28;20243;-77
2023/01/07 07:07:30;;;;;;;9.65;7.18;;;10.40;99.90;;;;;;5092020;28;20227;-78
2023/01/07 07:09:57;;;;;;;6.78;6.18;;;10.40;99.90;;;;;;5090937;28;20223;-78
2023/01/07 07:12:26;;;;;;;8.45;7.55;;;10.40;99.90;;;;;;5092005;28;20268;-78
2023/01/07 07:14:54;;;;;;;7.50;6.75;;;10.40;99.90;;;;;;5093732;28;20227;-78
2023/01/07 07:17:22;;;;;;;7.10;6.40;;;10.40;99.90;;;;;;5096630;28;20725;-77
2023/01/07 07:19:49;;;;;;;7.90;7.20;;;10.40;99.90;;;;;;5096359;28;20254;-77
2023/01/07 07:22:16;;;;;;;7.50;6.80;;;10.50;99.90;;;;;;5095152;28;20697;-78
2023/01/07 07:24:43;;;;;;;8.10;7.30;;;10.50;99.90;;;;;;5096373;28;20258;-77
2023/01/07 07:27:10;;;;;;;7.40;6.68;;;10.40;99.90;;;;;;5095245;28;20234;-77
2023/01/07 07:29:37;;;;;;;6.85;6.25;;;10.40;99.90;;;;;;5096300;28;20247;-77
2023/01/07 07:32:04;;;;;;;6.90;6.15;;;10.50;99.90;;;;;;5095196;28;20224;-77
2023/01/07 07:34:40;;;;;;;6.93;6.28;;;10.40;99.90;;;;;;5095793;28;20223;-77
2023/01/07 07:37:09;;;;;;;8.07;7.38;;;10.50;99.90;;;;;;5094916;28;20227;-77
2023/01/07 07:39:37;;;;;;;6.50;5.90;;;10.50;99.90;;;;;;5084403;28;20259;-77
2023/01/07 07:42:05;;;;;;;7.25;6.60;;;10.50;99.90;;;;;;5092078;28;20266;-78
2023/01/07 07:44:32;;;;;;;6.15;5.60;;;10.50;99.90;;;;;;5095690;28;20219;-77
2023/01/07 07:47:00;;;;;;;6.00;5.50;;;10.50;99.90;;;;;;5095940;28;20272;-77
2023/01/07 07:49:27;;;;;;;6.35;5.75;;;10.50;99.90;;;;;;5095388;28;20606;-76
2023/01/07 07:51:56;;;;;;;6.35;5.63;;;10.60;99.90;;;;;;5095418;28;20228;-77
2023/01/07 07:54:23;;;;;;;6.38;5.78;;;10.50;99.90;;;;;;5095156;28;20223;-77
2023/01/07 07:56:51;;;;;;;7.15;6.45;;;10.50;99.90;;;;;;5095498;28;20241;-77
2023/01/07 07:59:18;;;;;;;6.05;5.55;;;10.60;99.90;;;;;;5097112;28;20231;-79
2023/01/07 08:01:46;;;;;;;6.18;5.57;;;10.60;99.90;;;;;;5102296;28;20227;-78
2023/01/07 08:04:13;;;;;;;5.75;5.25;;;10.60;99.90;;;;;;5101356;28;20246;-78
2023/01/07 08:06:40;;;;;;;7.15;6.43;;;10.60;99.90;;;;;;5097578;28;20669;-78
2023/01/07 08:09:10;;;;;;;6.95;6.20;;;10.60;99.90;;;;;;5084983;28;20677;-79
2023/01/07 08:11:37;;;;;;;6.97;6.28;;;10.60;99.90;;;;;;5094302;28;20315;-78
2023/01/07 08:14:10;;;;;;;5.18;4.72;;;10.60;99.90;;;;;;5095097;28;20219;-77
2023/01/07 08:16:37;;;;;;;6.88;6.00;;;10.60;99.90;;;;;;5094641;28;20251;-77
2023/01/07 08:19:04;;;;;;;6.10;5.60;;;10.60;99.90;;;;;;5095243;28;20412;-78
2023/01/07 08:21:31;;;;;;;5.82;5.30;;;10.60;99.90;;;;;;5093357;28;20257;-77
2023/01/07 08:23:58;;;;;;;5.00;4.60;;;10.60;99.90;;;;;;5075665;28;20219;-79
2023/01/07 08:26:27;;;;;;;6.68;6.05;;;10.70;99.90;;;;;;5092832;28;20258;-78
2023/01/07 08:28:54;;;;;;;5.50;4.60;;;10.70;99.90;;;;;;5084485;28;20273;-78
2023/01/07 08:31:21;;;;;;;8.70;6.05;;;10.70;99.90;;;;;;5093636;28;20316;-78
2023/01/07 08:33:49;;;;;;;7.10;6.40;;;10.70;99.90;;;;;;5094482;28;20248;-78
2023/01/07 08:36:16;;;;;;;6.47;5.85;;;10.80;99.90;;;;;;5094800;28;20247;-77
2023/01/07 08:38:44;;;;;;;8.90;8.00;;;10.80;99.90;;;;;;5093989;28;20215;-78
2023/01/07 08:41:11;;;;;;;8.40;7.60;;;10.80;99.90;;;;;;5094328;28;20322;-77
2023/01/07 08:43:43;;;;;;;12.50;10.57;;;10.80;99.90;;;;;;5093255;28;20754;-78
2023/01/07 08:46:24;;;;;;;6.90;6.20;;;10.80;99.90;;;;;;5084026;28;20301;-78
2023/01/07 08:48:53;;;;;;;12.20;10.82;;;10.80;99.90;;;;;;5083914;28;20296;-77
2023/01/07 08:51:22;;;;;;;12.98;11.63;;;10.80;99.90;;;;;;5093007;28;20243;-78
2023/01/07 08:53:49;;;;;;;17.85;11.10;;;10.80;99.90;;;;;;5094292;28;20231;-77
2023/01/07 08:56:21;;;;;;;9.05;8.18;;;10.80;99.90;;;;;;5094359;28;20219;-78
2023/01/07 08:58:50;;;;;;;7.35;6.65;;;10.90;99.90;;;;;;5094054;28;20230;-79
2023/01/07 09:01:17;;;;;;;6.72;6.10;;;10.90;99.90;;;;;;5094387;28;20242;-77
2023/01/07 09:03:44;;;;;;;6.68;6.07;;;10.90;99.90;;;;;;5092909;28;20220;-80
2023/01/07 09:06:12;;;;;;;7.80;6.97;;;10.90;99.90;;;;;;5085155;28;20656;-79
2023/01/07 09:08:39;;;;;;;6.50;5.90;;;11.00;99.90;;;;;;5093311;28;20234;-78
2023/01/07 09:11:06;;;;;;;5.35;4.85;;;10.90;99.90;;;;;;5093444;28;20310;-77
2023/01/07 09:13:35;;;;;;;5.00;4.60;;;11.00;99.90;;;;;;5092978;28;20284;-78
2023/01/07 09:16:06;;;;;;;4.95;4.55;;;11.00;99.90;;;;;;5093369;28;20232;-78
2023/01/07 09:18:33;;;;;;;6.80;5.78;;;11.00;99.90;;;;;;5094096;28;20258;-78
2023/01/07 09:21:01;;;;;;;8.10;7.15;;;11.00;99.90;;;;;;5091937;28;20239;-77
2023/01/07 09:23:28;;;;;;;7.50;6.65;;;11.10;99.90;;;;;;5093564;28;20315;-77
2023/01/07 09:26:05;;;;;;;5.55;5.05;;;11.10;99.90;;;;;;5093372;28;20223;-78
2023/01/07 09:28:32;;;;;;;6.50;5.13;;;11.10;99.90;;;;;;5093902;28;20300;-78
2023/01/07 09:30:59;;;;;;;4.50;4.13;;;11.10;99.90;;;;;;5092949;28;20227;-78
2023/01/07 09:33:28;;;;;;;4.50;3.75;;;11.10;99.90;;;;;;5093322;28;20215;-77
2023/01/07 09:35:55;;;;;;;3.80;3.50;;;11.20;99.90;;;;;;5074532;28;20786;-77
2023/01/07 09:38:22;;;;;;;5.50;5.00;;;11.20;99.90;;;;;;5092311;28;20227;-77
2023/01/07 09:40:50;;;;;;;4.85;4.45;;;11.20;99.90;;;;;;5092958;28;20234;-77
2023/01/07 09:43:22;;;;;;;7.47;5.07;;;11.20;99.90;;;;;;5093293;28;20612;-77
2023/01/07 09:45:52;;;;;;;6.75;6.15;;;11.20;99.90;;;;;;5091940;28;20665;-78
2023/01/07 09:48:24;;;;;;;7.53;6.28;;;11.30;99.90;;;;;;5083142;28;20584;-78
2023/01/07 09:51:05;;;;;;;6.03;5.53;;;11.30;99.90;;;;;;5092124;28;20516;-77
2023/01/07 09:53:42;;;;;;;6.10;5.30;;;11.30;99.90;;;;;;5093452;28;20685;-77
2023/01/07 09:56:18;;;;;;;4.15;3.80;;;11.30;99.90;;;;;;5092876;28;20226;-78
2023/01/07 09:58:47;;;;;;;4.88;4.30;;;11.30;99.90;;;;;;5082697;28;20254;-77
2023/01/07 10:01:26;;;;;;;5.03;4.55;;;11.30;99.90;;;;;;5092711;28;20665;-77
2023/01/07 10:04:11;;;;;;;4.63;4.22;;;11.30;99.90;;;;;;5093026;28;20536;-77
2023/01/07 10:06:47;;;;;;;5.55;4.75;;;11.40;99.90;;;;;;5091957;28;20246;-76
2023/01/07 10:09:29;;;;;;;4.88;4.43;;;11.30;99.90;;;;;;5092515;28;20226;-77
2023/01/07 10:12:06;;;;;;;5.50;4.90;;;11.30;99.90;;;;;;5081135;28;20227;-78
2023/01/07 10:14:50;;;;;;;5.15;4.60;;;11.30;99.90;;;;;;5080685;28;20272;-77
2023/01/07 10:17:29;;;;;;;5.43;4.60;;;11.40;99.90;;;;;;5089767;28;20227;-77
2023/01/07 10:20:06;;;;;;;5.82;4.97;;;11.40;99.90;;;;;;5092764;28;20239;-78
2023/01/07 10:22:39;;;;;;;8.65;5.63;;;11.40;99.90;;;;;;5081871;28;20222;-77
2023/01/07 10:25:18;;;;;;;5.50;4.97;;;11.40;99.90;;;;;;5092173;28;20223;-76
2023/01/07 10:27:47;;;;;;;5.45;5.05;;;11.40;99.90;;;;;;5080837;28;20220;-77
2023/01/07 10:30:21;;;;;;;4.85;4.45;;;11.40;99.90;;;;;;5091751;28;20256;-77
2023/01/07 10:32:54;;;;;;;5.45;4.75;;;11.40;99.90;;;;;;5082027;28;20226;-78
2023/01/07 10:35:29;;;;;;;5.30;3.92;;;11.50;99.90;;;;;;5092841;28;20238;-77
2023/01/07 10:38:02;;;;;;;5.35;4.95;;;11.50;99.90;;;;;;5091966;28;20219;-77
2023/01/07 10:40:38;;;;;;;5.22;4.72;;;11.50;99.90;;;;;;5092258;28;20227;-76
2023/01/07 10:43:28;;;;;;;6.97;5.75;;;11.50;99.90;;;;;;5092026;28;20711;-78
2023/01/07 10:46:06;;;;;;;9.95;7.75;;;11.60;99.90;;;;;;5091495;28;20227;-75
2023/01/07 10:48:47;;;;;;;8.05;7.25;;;11.60;99.90;;;;;;5093384;28;20249;-76
2023/01/07 10:51:35;;;;;;;11.18;7.00;;;11.60;99.90;;;;;;5090006;28;20219;-78
2023/01/07 10:54:16;;;;;;;7.22;6.50;;;11.60;99.90;;;;;;5096627;28;20301;-78
2023/01/07 10:56:46;;;;;;;8.95;6.32;;;11.60;99.90;;;;;;5096318;28;20555;-79
2023/01/07 10:59:20;;;;;;;8.32;6.68;;;11.60;99.90;;;;;;5096103;28;20223;-78
2023/01/07 11:01:56;;;;;;;8.85;7.03;;;11.70;99.90;;;;;;5076335;28;20654;-79
2023/01/07 11:04:23;;;;;;;6.35;5.75;;;11.70;99.90;;;;;;5095053;28;20233;-77
2023/01/07 11:06:57;;;;;;;6.70;4.68;;;11.70;99.90;;;;;;5096393;28;20220;-78
2023/01/07 11:09:48;;;;;;;3.95;3.65;;;11.70;99.90;;;;;;5095644;28;20288;-78
2023/01/07 11:12:27;;;;;;;4.50;4.10;;;11.80;99.90;;;;;;5069272;28;20227;-78
2023/01/07 11:15:03;;;;;;;4.10;3.72;;;11.70;99.90;;;;;;5076026;28;20216;-78
2023/01/07 11:17:42;;;;;;;5.20;4.70;;;11.70;99.90;;;;;;5072085;28;20653;-78
2023/01/07 11:20:12;;;;;;;3.70;3.40;;;11.60;99.90;;;;;;5063721;28;20247;-78
2023/01/07 11:22:42;;;;;;;4.00;3.60;;;11.60;99.90;;;;;;5076911;28;20220;-79
2023/01/07 11:25:28;;;;;;;4.32;3.97;;;11.60;99.90;;;;;;5064573;28;20229;-78
2023/01/07 11:28:03;;;;;;;4.53;4.13;;;11.60;99.90;;;;;;5076027;28;20665;-78
2023/01/07 11:30:33;;;;;;;4.07;3.78;;;11.70;99.90;;;;;;5074755;28;20227;-77
2023/01/07 11:33:06;;;;;;;10.15;4.10;;;11.70;99.90;;;;;;5065524;28;20251;-77
2023/01/07 11:35:43;;;;;;;4.93;4.07;;;11.70;99.90;;;;;;5075568;28;20525;-78
2023/01/07 11:38:27;;;;;;;4.15;3.75;;;11.70;99.90;;;;;;5075436;28;20220;-78
2023/01/07 11:40:58;;;;;;;3.97;3.63;;;11.70;99.90;;;;;;5076117;28;20307;-78
2023/01/07 11:43:31;;;;;;;5.15;4.10;;;11.70;99.90;;;;;;5064825;28;20236;-77
2023/01/07 11:46:17;;;;;;;4.18;3.78;;;11.80;99.90;;;;;;5075193;28;20566;-78
2023/01/07 11:48:51;;;;;;;5.05;4.55;;;11.80;99.90;;;;;;5063714;28;20223;-78
2023/01/07 11:51:21;;;;;;;4.50;4.10;;;11.80;99.90;;;;;;5082734;28;20250;-76
2023/01/07 11:54:04;;;;;;;4.55;3.97;;;11.90;99.90;;;;;;5086782;28;20239;-77
2023/01/07 11:56:36;;;;;;;5.68;3.90;;;11.90;99.90;;;;;;5086923;28;20219;-77
2023/01/07 12:00:03;;;;;;;3.75;3.25;;;11.90;99.90;;;;;;5094962;28;20690;-77
2023/01/07 12:02:38;;;;;;;3.70;3.40;;;11.90;99.90;;;;;;5074394;28;20297;-77
2023/01/07 12:05:28;;;;;;;3.72;3.38;;;12.00;99.90;;;;;;5075096;28;20245;-78
2023/01/07 12:08:34;;;;;;;3.78;3.13;;;12.00;99.90;;;;;;5063859;28;20246;-78
2023/01/07 12:11:07;;;;;;;3.47;2.47;;;12.10;99.90;;;;;;5029265;28;20553;-77
2023/01/07 12:13:40;;;;;;;3.15;2.85;;;12.10;99.90;;;;;;5087989;28;20284;-77
2023/01/07 12:16:11;;;;;;;8.05;4.90;;;12.10;99.90;;;;;;5077597;28;20220;-78
2023/01/07 12:19:12;;;;;;;11.90;8.73;;;12.20;99.90;;;;;;5092972;28;20247;-78
2023/01/07 12:21:50;;;;;;;6.50;5.80;;;12.30;99.90;;;;;;5056391;28;20222;-77
2023/01/07 12:24:36;;;;;;;5.63;5.07;;;12.30;99.90;;;;;;5095517;28;20242;-78
2023/01/07 12:27:14;;;;;;;3.38;2.72;;;12.30;99.90;;;;;;5094410;28;20211;-78
2023/01/07 12:32:55;;;;;;;2.47;2.25;;;12.30;99.90;;;;;;5079741;28;20223;-77
2023/01/07 12:35:29;;;;;;;3.97;2.90;;;12.30;99.90;;;;;;5084788;28;20226;-77
2023/01/07 12:38:15;;;;;;;2.75;1.92;;;12.30;99.90;;;;;;5083137;28;20231;-78
2023/01/07 12:40:48;;;;;;;2.25;1.73;;;12.40;99.90;;;;;;5094546;28;20277;-76
2023/01/07 12:43:21;;;;;;;2.35;2.15;;;12.40;99.90;;;;;;5081255;28;20219;-78
2023/01/07 12:45:58;;;;;;;2.28;2.08;;;12.50;99.90;;;;;;5093869;28;20277;-77
2023/01/07 12:48:31;;;;;;;2.83;2.63;;;12.50;99.90;;;;;;5094835;28;20227;-78
2023/01/07 12:51:03;;;;;;;3.60;2.20;;;12.50;99.90;;;;;;5094447;28;20227;-78
2023/01/07 12:53:36;;;;;;;2.72;1.73;;;12.60;99.90;;;;;;5094039;28;20688;-77
2023/01/07 12:56:07;;;;;;;2.63;2.33;;;12.60;99.90;;;;;;5093164;28;20677;-77
2023/01/07 12:58:44;;;;;;;2.20;1.67;;;12.60;99.90;;;;;;5082148;28;20229;-77
2023/01/07 13:01:28;;;;;;;2.75;2.22;;;12.60;99.90;;;;;;5062589;28;20227;-77
2023/01/07 13:04:05;;;;;;;11.90;9.50;;;12.60;99.90;;;;;;5093987;28;20258;-77
2023/01/07 13:06:43;;;;;;;6.80;6.10;;;12.70;99.90;;;;;;5093325;28;20247;-78
2023/01/07 13:09:21;;;;;;;4.57;3.60;;;12.70;99.90;;;;;;5094183;28;20223;-78
2023/01/07 13:14:48;;;;;;;2.60;2.40;;;12.70;99.90;;;;;;5083304;28;20276;-78
2023/01/07 13:17:20;;;;;;;2.72;2.53;;;12.70;99.90;;;;;;5094125;28;20474;-76
2023/01/07 13:20:02;;;;;;;2.72;2.35;;;12.70;99.90;;;;;;5082963;28;20277;-76
2023/01/07 13:22:34;;;;;;;2.78;2.55;;;12.70;99.90;;;;;;5093649;28;20238;-77